sensor_id;sensor_type;location;lat;lon;timestamp;P1;P2;P0
20157;PMS5003;10239;56.820;24.416;2023-07-16T00:00:18;3.50;3.00;1.25
20157;PMS5003;10239;56.820;24.416;2023-07-16T00:02:53;6.75;3.00;1.00
20157;PMS5003;10239;56.820;24.416;2023-07-16T00:05:21;3.00;3.00;1.00
20157;PMS5003;10239;56.820;24.416;2023-07-16T00:07:49;4.75;3.75;1.00
20157;PMS5003;10239;56.820;24.416;2023-07-16T00:10:16;4.00;4.00;2.50
20157;PMS5003;10239;56.820;24.416;2023-07-16T00:12:44;4.00;3.25;2.25
20157;PMS5003;10239;56.820;24.416;2023-07-16T00:15:12;1.00;1.00;1.00
20157;PMS5003;10239;56.820;24.416;2023-07-16T00:17:39;4.75;4.00;2.00
20157;PMS5003;10239;56.820;24.416;2023-07-16T00:20:07;3.50;3.50;1.00
20157;PMS5003;10239;56.820;24.416;2023-07-16T00:22:35;4.50;4.50;2.00
20157;PMS5003;10239;56.820;24.416;2023-07-16T00:25:06;7.00;4.50;3.00
20157;PMS5003;10239;56.820;24.416;2023-07-16T00:27:34;3.50;3.50;2.00
20157;PMS5003;10239;56.820;24.416;2023-07-16T00:30:02;4.00;4.00;2.00
20157;PMS5003;10239;56.820;24.416;2023-07-16T00:32:30;5.75;5.75;2.00
20157;PMS5003;10239;56.820;24.416;2023-07-16T00:34:58;4.25;4.25;1.00
20157;PMS5003;10239;56.820;24.416;2023-07-16T00:37:25;2.75;2.75;1.00
20157;PMS5003;10239;56.820;24.416;2023-07-16T00:39:53;3.75;3.75;3.00
20157;PMS5003;10239;56.820;24.416;2023-07-16T00:42:22;2.00;2.00;1.00
20157;PMS5003;10239;56.820;24.416;2023-07-16T00:44:50;4.00;4.00;2.00
20157;PMS5003;10239;56.820;24.416;2023-07-16T00:47:18;6.50;6.50;3.00
20157;PMS5003;10239;56.820;24.416;2023-07-16T00:49:47;4.75;4.75;1.75
20157;PMS5003;10239;56.820;24.416;2023-07-16T00:52:16;4.25;4.25;2.25
20157;PMS5003;10239;56.820;24.416;2023-07-16T00:54:46;3.75;3.75;1.25
20157;PMS5003;10239;56.820;24.416;2023-07-16T00:57:14;8.50;5.50;2.75
20157;PMS5003;10239;56.820;24.416;2023-07-16T00:59:42;6.00;3.00;1.50
20157;PMS5003;10239;56.820;24.416;2023-07-16T01:02:10;8.50;5.75;2.00
20157;PMS5003;10239;56.820;24.416;2023-07-16T01:04:38;7.75;3.50;1.50
20157;PMS5003;10239;56.820;24.416;2023-07-16T01:07:06;5.25;5.25;2.50
20157;PMS5003;10239;56.820;24.416;2023-07-16T01:09:39;6.50;5.00;3.00
20157;PMS5003;10239;56.820;24.416;2023-07-16T01:12:09;2.50;2.50;2.00
20157;PMS5003;10239;56.820;24.416;2023-07-16T01:14:38;6.50;3.75;2.75
20157;PMS5003;10239;56.820;24.416;2023-07-16T01:17:07;3.50;2.75;1.75
20157;PMS5003;10239;56.820;24.416;2023-07-16T01:19:35;3.50;3.50;2.00
20157;PMS5003;10239;56.820;24.416;2023-07-16T01:22:09;3.25;3.25;2.00
20157;PMS5003;10239;56.820;24.416;2023-07-16T01:30:46;3.25;3.25;2.25
20157;PMS5003;10239;56.820;24.416;2023-07-16T01:33:15;4.50;2.25;2.00
20157;PMS5003;10239;56.820;24.416;2023-07-16T01:35:44;3.00;3.00;1.50
20157;PMS5003;10239;56.820;24.416;2023-07-16T01:38:13;5.00;3.50;2.00
20157;PMS5003;10239;56.820;24.416;2023-07-16T01:40:44;2.75;2.75;2.00
20157;PMS5003;10239;56.820;24.416;2023-07-16T01:43:12;5.00;5.00;2.00
20157;PMS5003;10239;56.820;24.416;2023-07-16T01:45:39;7.25;4.00;2.00
20157;PMS5003;10239;56.820;24.416;2023-07-16T01:50:48;6.00;4.00;2.25
20157;PMS5003;10239;56.820;24.416;2023-07-16T01:53:15;6.00;3.50;2.00
20157;PMS5003;10239;56.820;24.416;2023-07-16T01:55:44;3.50;2.75;1.50
20157;PMS5003;10239;56.820;24.416;2023-07-16T01:58:11;5.00;2.75;1.25
20157;PMS5003;10239;56.820;24.416;2023-07-16T02:00:39;6.00;3.25;2.00
20157;PMS5003;10239;56.820;24.416;2023-07-16T02:03:07;5.00;2.50;2.00
20157;PMS5003;10239;56.820;24.416;2023-07-16T02:05:34;2.00;2.00;1.25
20157;PMS5003;10239;56.820;24.416;2023-07-16T02:08:03;6.50;2.75;1.50
20157;PMS5003;10239;56.820;24.416;2023-07-16T02:10:32;3.25;2.75;1.50
20157;PMS5003;10239;56.820;24.416;2023-07-16T02:12:59;4.25;2.25;1.00
20157;PMS5003;10239;56.820;24.416;2023-07-16T02:15:27;7.75;4.00;1.00
20157;PMS5003;10239;56.820;24.416;2023-07-16T02:17:54;5.33;5.33;2.00
20157;PMS5003;10239;56.820;24.416;2023-07-16T02:20:22;3.00;3.00;2.00
20157;PMS5003;10239;56.820;24.416;2023-07-16T02:22:49;3.00;3.00;1.00
20157;PMS5003;10239;56.820;24.416;2023-07-16T02:25:17;2.75;2.75;1.00
20157;PMS5003;10239;56.820;24.416;2023-07-16T02:27:46;3.00;3.00;2.00
20157;PMS5003;10239;56.820;24.416;2023-07-16T02:30:14;6.00;3.00;2.00
20157;PMS5003;10239;56.820;24.416;2023-07-16T02:32:42;3.75;3.75;2.75
20157;PMS5003;10239;56.820;24.416;2023-07-16T02:35:10;6.50;4.00;2.00
20157;PMS5003;10239;56.820;24.416;2023-07-16T02:37:37;1.00;1.00;0.00
20157;PMS5003;10239;56.820;24.416;2023-07-16T02:40:06;5.00;3.00;1.00
20157;PMS5003;10239;56.820;24.416;2023-07-16T02:42:34;2.50;2.00;2.00
20157;PMS5003;10239;56.820;24.416;2023-07-16T02:45:02;6.00;4.00;2.00
20157;PMS5003;10239;56.820;24.416;2023-07-16T02:47:30;3.00;3.00;2.50
20157;PMS5003;10239;56.820;24.416;2023-07-16T02:49:58;0.00;0.00;0.00
20157;PMS5003;10239;56.820;24.416;2023-07-16T02:52:26;6.75;3.50;1.75
20157;PMS5003;10239;56.820;24.416;2023-07-16T02:54:53;3.00;3.00;1.00
20157;PMS5003;10239;56.820;24.416;2023-07-16T02:57:21;1.75;1.75;1.00
20157;PMS5003;10239;56.820;24.416;2023-07-16T02:59:49;4.00;2.25;2.00
20157;PMS5003;10239;56.820;24.416;2023-07-16T03:02:17;4.75;2.75;1.00
20157;PMS5003;10239;56.820;24.416;2023-07-16T03:04:44;3.25;3.25;2.00
20157;PMS5003;10239;56.820;24.416;2023-07-16T03:07:12;4.50;3.50;2.00
20157;PMS5003;10239;56.820;24.416;2023-07-16T03:09:39;1.00;1.00;0.00
20157;PMS5003;10239;56.820;24.416;2023-07-16T03:12:07;1.00;1.00;1.00
20157;PMS5003;10239;56.820;24.416;2023-07-16T03:14:39;3.00;3.00;1.25
20157;PMS5003;10239;56.820;24.416;2023-07-16T03:17:07;3.50;3.50;2.00
20157;PMS5003;10239;56.820;24.416;2023-07-16T03:19:35;1.75;1.75;1.00
20157;PMS5003;10239;56.820;24.416;2023-07-16T03:22:02;3.50;2.50;1.00
20157;PMS5003;10239;56.820;24.416;2023-07-16T03:24:34;2.75;2.75;1.75
20157;PMS5003;10239;56.820;24.416;2023-07-16T03:27:03;3.00;3.00;1.00
20157;PMS5003;10239;56.820;24.416;2023-07-16T03:29:53;3.00;1.50;0.50
20157;PMS5003;10239;56.820;24.416;2023-07-16T03:32:21;5.00;4.00;1.75
20157;PMS5003;10239;56.820;24.416;2023-07-16T03:34:56;3.00;3.00;2.00
20157;PMS5003;10239;56.820;24.416;2023-07-16T03:37:24;2.50;2.50;2.00
20157;PMS5003;10239;56.820;24.416;2023-07-16T03:39:52;5.50;4.25;1.50
20157;PMS5003;10239;56.820;24.416;2023-07-16T03:42:19;5.25;3.75;1.75
20157;PMS5003;10239;56.820;24.416;2023-07-16T03:44:49;1.75;1.50;1.00
20157;PMS5003;10239;56.820;24.416;2023-07-16T03:47:17;2.25;2.25;1.50
20157;PMS5003;10239;56.820;24.416;2023-07-16T03:49:45;3.75;3.00;2.00
20157;PMS5003;10239;56.820;24.416;2023-07-16T03:52:12;2.50;2.50;2.00
20157;PMS5003;10239;56.820;24.416;2023-07-16T03:54:39;2.00;2.00;1.50
20157;PMS5003;10239;56.820;24.416;2023-07-16T03:57:07;2.50;2.50;1.50
20157;PMS5003;10239;56.820;24.416;2023-07-16T03:59:34;4.00;4.00;2.00
20157;PMS5003;10239;56.820;24.416;2023-07-16T04:02:03;2.50;2.50;1.25
20157;PMS5003;10239;56.820;24.416;2023-07-16T04:04:31;2.25;2.25;2.00
20157;PMS5003;10239;56.820;24.416;2023-07-16T04:06:58;1.75;1.75;1.00
20157;PMS5003;10239;56.820;24.416;2023-07-16T04:09:25;2.00;2.00;1.00
20157;PMS5003;10239;56.820;24.416;2023-07-16T04:11:53;4.00;4.00;2.00
20157;PMS5003;10239;56.820;24.416;2023-07-16T04:14:20;3.00;3.00;1.50
20157;PMS5003;10239;56.820;24.416;2023-07-16T04:16:48;2.25;2.25;1.00
20157;PMS5003;10239;56.820;24.416;2023-07-16T04:19:15;2.00;2.00;1.00
20157;PMS5003;10239;56.820;24.416;2023-07-16T04:21:42;3.00;3.00;2.00
20157;PMS5003;10239;56.820;24.416;2023-07-16T04:24:10;4.00;2.50;1.25
20157;PMS5003;10239;56.820;24.416;2023-07-16T04:26:38;3.25;3.25;2.00
20157;PMS5003;10239;56.820;24.416;2023-07-16T04:29:05;3.25;3.25;2.00
20157;PMS5003;10239;56.820;24.416;2023-07-16T04:31:33;3.00;2.00;1.00
20157;PMS5003;10239;56.820;24.416;2023-07-16T04:34:00;3.25;1.75;1.00
20157;PMS5003;10239;56.820;24.416;2023-07-16T04:36:29;2.00;2.00;1.00
20157;PMS5003;10239;56.820;24.416;2023-07-16T04:38:59;2.00;2.00;1.00
20157;PMS5003;10239;56.820;24.416;2023-07-16T04:41:27;3.00;3.00;2.00
20157;PMS5003;10239;56.820;24.416;2023-07-16T04:43:54;2.75;2.75;1.00
20157;PMS5003;10239;56.820;24.416;2023-07-16T04:46:22;1.75;1.50;1.00
20157;PMS5003;10239;56.820;24.416;2023-07-16T04:48:50;2.75;2.75;2.00
20157;PMS5003;10239;56.820;24.416;2023-07-16T04:51:20;6.00;3.00;2.00
20157;PMS5003;10239;56.820;24.416;2023-07-16T04:53:50;3.75;2.50;1.00
20157;PMS5003;10239;56.820;24.416;2023-07-16T04:56:18;2.00;2.00;1.00
20157;PMS5003;10239;56.820;24.416;2023-07-16T04:58:46;2.00;2.00;1.00
20157;PMS5003;10239;56.820;24.416;2023-07-16T05:01:14;4.00;2.00;1.50
20157;PMS5003;10239;56.820;24.416;2023-07-16T05:03:42;2.50;2.50;1.00
20157;PMS5003;10239;56.820;24.416;2023-07-16T05:06:09;1.00;1.00;0.00
20157;PMS5003;10239;56.820;24.416;2023-07-16T05:08:37;2.60;2.60;1.40
20157;PMS5003;10239;56.820;24.416;2023-07-16T05:11:05;2.00;2.00;0.80
20157;PMS5003;10239;56.820;24.416;2023-07-16T05:13:33;2.20;2.20;1.00
20157;PMS5003;10239;56.820;24.416;2023-07-16T05:16:01;2.00;2.00;1.00
20157;PMS5003;10239;56.820;24.416;2023-07-16T05:18:29;1.00;1.00;1.00
20157;PMS5003;10239;56.820;24.416;2023-07-16T05:20:56;2.20;2.20;1.60
20157;PMS5003;10239;56.820;24.416;2023-07-16T05:23:24;3.00;3.00;1.20
20157;PMS5003;10239;56.820;24.416;2023-07-16T05:25:52;4.00;2.00;1.00
20157;PMS5003;10239;56.820;24.416;2023-07-16T05:28:20;2.00;2.00;1.00
20157;PMS5003;10239;56.820;24.416;2023-07-16T05:30:47;5.00;2.40;1.40
20157;PMS5003;10239;56.820;24.416;2023-07-16T05:33:24;3.00;3.00;1.00
20157;PMS5003;10239;56.820;24.416;2023-07-16T05:35:51;2.00;2.00;1.00
20157;PMS5003;10239;56.820;24.416;2023-07-16T05:38:18;1.60;1.60;0.80
20157;PMS5003;10239;56.820;24.416;2023-07-16T05:40:46;1.00;1.00;0.00
20157;PMS5003;10239;56.820;24.416;2023-07-16T05:43:13;1.80;1.80;1.00
20157;PMS5003;10239;56.820;24.416;2023-07-16T05:45:41;2.00;2.00;1.00
20157;PMS5003;10239;56.820;24.416;2023-07-16T05:48:08;1.60;1.60;1.00
20157;PMS5003;10239;56.820;24.416;2023-07-16T05:50:36;1.60;1.60;1.00
20157;PMS5003;10239;56.820;24.416;2023-07-16T05:53:04;1.00;1.00;0.40
20157;PMS5003;10239;56.820;24.416;2023-07-16T05:55:31;2.00;2.00;1.00
20157;PMS5003;10239;56.820;24.416;2023-07-16T05:57:59;3.00;3.00;2.00
20157;PMS5003;10239;56.820;24.416;2023-07-16T06:00:26;3.00;3.00;1.60
20157;PMS5003;10239;56.820;24.416;2023-07-16T06:02:53;1.00;1.00;0.00
20157;PMS5003;10239;56.820;24.416;2023-07-16T06:05:21;1.60;1.60;1.00
20157;PMS5003;10239;56.820;24.416;2023-07-16T06:07:48;1.00;1.00;1.00
20157;PMS5003;10239;56.820;24.416;2023-07-16T06:10:16;3.60;1.00;1.00
20157;PMS5003;10239;56.820;24.416;2023-07-16T06:12:43;2.80;2.00;1.00
20157;PMS5003;10239;56.820;24.416;2023-07-16T06:15:13;2.00;2.00;0.60
20157;PMS5003;10239;56.820;24.416;2023-07-16T06:17:41;3.60;2.60;1.80
20157;PMS5003;10239;56.820;24.416;2023-07-16T06:20:08;2.00;2.00;1.00
20157;PMS5003;10239;56.820;24.416;2023-07-16T06:22:36;0.80;0.80;0.60
20157;PMS5003;10239;56.820;24.416;2023-07-16T06:25:05;1.00;1.00;0.40
20157;PMS5003;10239;56.820;24.416;2023-07-16T06:27:33;2.40;2.40;1.00
20157;PMS5003;10239;56.820;24.416;2023-07-16T06:30:00;2.00;2.00;0.00
20157;PMS5003;10239;56.820;24.416;2023-07-16T06:32:28;1.00;1.00;1.00
20157;PMS5003;10239;56.820;24.416;2023-07-16T06:34:56;2.00;2.00;1.00
20157;PMS5003;10239;56.820;24.416;2023-07-16T06:37:24;3.00;3.00;1.00
20157;PMS5003;10239;56.820;24.416;2023-07-16T06:39:52;1.40;1.00;1.00
20157;PMS5003;10239;56.820;24.416;2023-07-16T06:42:23;1.80;1.80;1.00
20157;PMS5003;10239;56.820;24.416;2023-07-16T06:44:51;1.00;1.00;0.00
20157;PMS5003;10239;56.820;24.416;2023-07-16T06:47:19;2.00;2.00;1.00
20157;PMS5003;10239;56.820;24.416;2023-07-16T06:49:47;2.40;2.40;1.20
20157;PMS5003;10239;56.820;24.416;2023-07-16T06:52:18;3.00;3.00;1.00
20157;PMS5003;10239;56.820;24.416;2023-07-16T06:54:47;2.00;2.00;1.00
20157;PMS5003;10239;56.820;24.416;2023-07-16T06:57:15;2.00;2.00;1.00
20157;PMS5003;10239;56.820;24.416;2023-07-16T06:59:42;1.00;1.00;1.00
20157;PMS5003;10239;56.820;24.416;2023-07-16T07:02:11;2.00;2.00;1.00
20157;PMS5003;10239;56.820;24.416;2023-07-16T07:04:39;2.20;2.00;1.00
20157;PMS5003;10239;56.820;24.416;2023-07-16T07:07:06;1.00;1.00;0.60
20157;PMS5003;10239;56.820;24.416;2023-07-16T07:09:34;2.60;1.60;0.00
20157;PMS5003;10239;56.820;24.416;2023-07-16T07:12:02;3.20;3.20;1.20
20157;PMS5003;10239;56.820;24.416;2023-07-16T07:14:30;3.00;3.00;1.20
20157;PMS5003;10239;56.820;24.416;2023-07-16T07:16:58;1.00;1.00;0.20
20157;PMS5003;10239;56.820;24.416;2023-07-16T07:19:26;2.00;2.00;1.00
20157;PMS5003;10239;56.820;24.416;2023-07-16T07:21:54;4.00;2.20;1.00
20157;PMS5003;10239;56.820;24.416;2023-07-16T07:24:21;2.00;2.00;1.00
20157;PMS5003;10239;56.820;24.416;2023-07-16T07:26:49;0.00;0.00;0.00
20157;PMS5003;10239;56.820;24.416;2023-07-16T07:29:17;4.80;1.80;0.00
20157;PMS5003;10239;56.820;24.416;2023-07-16T07:31:44;1.00;1.00;0.20
20157;PMS5003;10239;56.820;24.416;2023-07-16T07:34:12;1.40;1.20;0.00
20157;PMS5003;10239;56.820;24.416;2023-07-16T07:36:40;2.60;2.60;1.80
20157;PMS5003;10239;56.820;24.416;2023-07-16T07:39:07;2.80;2.20;1.60
20157;PMS5003;10239;56.820;24.416;2023-07-16T07:41:35;1.80;1.80;1.00
20157;PMS5003;10239;56.820;24.416;2023-07-16T07:44:02;3.00;3.00;1.00
20157;PMS5003;10239;56.820;24.416;2023-07-16T07:46:30;2.80;2.80;1.40
20157;PMS5003;10239;56.820;24.416;2023-07-16T07:48:58;3.00;3.00;2.00
20157;PMS5003;10239;56.820;24.416;2023-07-16T07:51:28;3.00;1.40;1.00
20157;PMS5003;10239;56.820;24.416;2023-07-16T07:53:55;2.00;2.00;1.00
20157;PMS5003;10239;56.820;24.416;2023-07-16T07:56:23;2.20;2.20;1.00
20157;PMS5003;10239;56.820;24.416;2023-07-16T07:58:50;3.40;2.00;0.00
20157;PMS5003;10239;56.820;24.416;2023-07-16T08:01:18;3.40;3.40;2.00
20157;PMS5003;10239;56.820;24.416;2023-07-16T08:03:45;4.00;3.00;1.80
20157;PMS5003;10239;56.820;24.416;2023-07-16T08:06:13;2.00;2.00;1.00
20157;PMS5003;10239;56.820;24.416;2023-07-16T08:08:42;1.60;1.60;1.00
20157;PMS5003;10239;56.820;24.416;2023-07-16T08:11:09;3.80;3.00;1.00
20157;PMS5003;10239;56.820;24.416;2023-07-16T08:13:37;3.00;2.60;1.20
20157;PMS5003;10239;56.820;24.416;2023-07-16T08:16:04;4.40;3.00;2.00
20157;PMS5003;10239;56.820;24.416;2023-07-16T08:18:32;1.60;1.60;1.00
20157;PMS5003;10239;56.820;24.416;2023-07-16T08:21:00;3.80;3.00;1.20
20157;PMS5003;10239;56.820;24.416;2023-07-16T08:23:27;1.40;1.40;0.60
20157;PMS5003;10239;56.820;24.416;2023-07-16T08:25:55;2.60;2.60;1.00
20157;PMS5003;10239;56.820;24.416;2023-07-16T08:28:23;3.00;3.00;1.20
20157;PMS5003;10239;56.820;24.416;2023-07-16T08:30:50;3.40;3.40;2.00
20157;PMS5003;10239;56.820;24.416;2023-07-16T08:33:18;4.20;4.20;2.00
20157;PMS5003;10239;56.820;24.416;2023-07-16T08:35:46;2.00;2.00;1.20
20157;PMS5003;10239;56.820;24.416;2023-07-16T08:38:13;2.80;2.00;1.40
20157;PMS5003;10239;56.820;24.416;2023-07-16T08:40:41;2.80;2.80;1.60
20157;PMS5003;10239;56.820;24.416;2023-07-16T08:43:09;3.20;2.40;1.20
20157;PMS5003;10239;56.820;24.416;2023-07-16T08:45:39;3.40;3.40;2.00
20157;PMS5003;10239;56.820;24.416;2023-07-16T08:48:09;5.40;3.80;2.00
20157;PMS5003;10239;56.820;24.416;2023-07-16T08:50:38;4.20;3.20;2.00
20157;PMS5003;10239;56.820;24.416;2023-07-16T08:53:05;2.80;2.80;1.00
20157;PMS5003;10239;56.820;24.416;2023-07-16T08:55:34;5.00;4.00;2.20
20157;PMS5003;10239;56.820;24.416;2023-07-16T08:58:04;3.00;3.00;1.20
20157;PMS5003;10239;56.820;24.416;2023-07-16T09:00:32;6.00;4.60;2.00
20157;PMS5003;10239;56.820;24.416;2023-07-16T09:03:01;2.40;1.60;1.00
20157;PMS5003;10239;56.820;24.416;2023-07-16T09:05:29;3.80;3.00;2.00
20157;PMS5003;10239;56.820;24.416;2023-07-16T09:08:06;3.00;2.60;2.00
20157;PMS5003;10239;56.820;24.416;2023-07-16T09:10:34;3.80;3.40;2.40
20157;PMS5003;10239;56.820;24.416;2023-07-16T09:13:02;3.00;3.00;1.20
20157;PMS5003;10239;56.820;24.416;2023-07-16T09:15:30;5.00;3.00;2.00
20157;PMS5003;10239;56.820;24.416;2023-07-16T09:17:57;1.00;1.00;0.00
20157;PMS5003;10239;56.820;24.416;2023-07-16T09:20:25;3.80;2.60;1.40
20157;PMS5003;10239;56.820;24.416;2023-07-16T09:22:54;2.60;2.60;1.80
20157;PMS5003;10239;56.820;24.416;2023-07-16T09:25:29;4.00;4.00;3.00
20157;PMS5003;10239;56.820;24.416;2023-07-16T09:27:57;4.60;4.00;2.00
20157;PMS5003;10239;56.820;24.416;2023-07-16T09:30:33;3.00;3.00;2.00
20157;PMS5003;10239;56.820;24.416;2023-07-16T09:33:14;4.20;4.20;2.00
20157;PMS5003;10239;56.820;24.416;2023-07-16T09:35:43;3.00;3.00;1.40
20157;PMS5003;10239;56.820;24.416;2023-07-16T09:38:11;5.20;5.20;2.00
20157;PMS5003;10239;56.820;24.416;2023-07-16T09:40:39;4.00;4.00;3.00
20157;PMS5003;10239;56.820;24.416;2023-07-16T09:43:10;4.20;4.20;1.60
20157;PMS5003;10239;56.820;24.416;2023-07-16T09:45:39;3.40;3.40;2.00
20157;PMS5003;10239;56.820;24.416;2023-07-16T09:48:07;3.00;3.00;2.00
20157;PMS5003;10239;56.820;24.416;2023-07-16T09:50:36;4.80;4.80;2.40
20157;PMS5003;10239;56.820;24.416;2023-07-16T09:53:05;4.60;4.60;2.40
20157;PMS5003;10239;56.820;24.416;2023-07-16T09:55:34;3.60;3.40;1.60
20157;PMS5003;10239;56.820;24.416;2023-07-16T09:58:04;4.40;3.00;2.00
20157;PMS5003;10239;56.820;24.416;2023-07-16T10:00:35;4.40;4.40;3.00
20157;PMS5003;10239;56.820;24.416;2023-07-16T10:03:06;4.00;4.00;2.00
20157;PMS5003;10239;56.820;24.416;2023-07-16T10:05:35;4.40;4.00;2.00
20157;PMS5003;10239;56.820;24.416;2023-07-16T10:08:04;3.80;2.20;1.40
20157;PMS5003;10239;56.820;24.416;2023-07-16T10:10:43;5.80;5.80;3.40
20157;PMS5003;10239;56.820;24.416;2023-07-16T10:13:15;4.00;4.00;3.00
20157;PMS5003;10239;56.820;24.416;2023-07-16T10:15:58;3.20;3.20;2.00
20157;PMS5003;10239;56.820;24.416;2023-07-16T10:18:26;5.80;5.20;3.00
20157;PMS5003;10239;56.820;24.416;2023-07-16T10:21:06;9.40;6.00;3.80
20157;PMS5003;10239;56.820;24.416;2023-07-16T10:23:39;4.20;4.20;2.00
20157;PMS5003;10239;56.820;24.416;2023-07-16T10:26:12;4.00;4.00;2.80
20157;PMS5003;10239;56.820;24.416;2023-07-16T10:28:45;5.20;5.20;3.00
20157;PMS5003;10239;56.820;24.416;2023-07-16T10:31:20;4.60;3.80;2.00
20157;PMS5003;10239;56.820;24.416;2023-07-16T10:33:57;5.00;5.00;3.80
20157;PMS5003;10239;56.820;24.416;2023-07-16T10:36:26;3.80;3.80;2.40
20157;PMS5003;10239;56.820;24.416;2023-07-16T10:38:54;4.40;2.80;2.20
20157;PMS5003;10239;56.820;24.416;2023-07-16T10:41:21;5.80;5.60;3.40
20157;PMS5003;10239;56.820;24.416;2023-07-16T10:43:49;3.20;3.20;3.00
20157;PMS5003;10239;56.820;24.416;2023-07-16T10:46:21;5.00;5.00;3.00
20157;PMS5003;10239;56.820;24.416;2023-07-16T10:48:48;6.20;6.20;4.20
20157;PMS5003;10239;56.820;24.416;2023-07-16T10:51:16;8.00;6.40;4.80
20157;PMS5003;10239;56.820;24.416;2023-07-16T10:53:44;5.00;5.00;4.00
20157;PMS5003;10239;56.820;24.416;2023-07-16T10:56:11;2.00;2.00;0.60
20157;PMS5003;10239;56.820;24.416;2023-07-16T10:58:40;6.40;6.00;4.00
20157;PMS5003;10239;56.820;24.416;2023-07-16T11:01:08;5.60;4.80;3.00
20157;PMS5003;10239;56.820;24.416;2023-07-16T11:03:36;5.00;5.00;4.00
20157;PMS5003;10239;56.820;24.416;2023-07-16T11:06:08;4.60;4.60;3.00
20157;PMS5003;10239;56.820;24.416;2023-07-16T11:08:36;6.00;5.60;2.40
20157;PMS5003;10239;56.820;24.416;2023-07-16T11:11:04;3.40;3.40;3.00
20157;PMS5003;10239;56.820;24.416;2023-07-16T11:13:32;5.00;5.00;3.60
20157;PMS5003;10239;56.820;24.416;2023-07-16T11:16:07;6.80;5.00;3.80
20157;PMS5003;10239;56.820;24.416;2023-07-16T11:18:36;5.20;5.20;4.40
20157;PMS5003;10239;56.820;24.416;2023-07-16T11:21:04;5.00;5.00;3.00
20157;PMS5003;10239;56.820;24.416;2023-07-16T11:23:35;6.80;5.40;4.00
20157;PMS5003;10239;56.820;24.416;2023-07-16T11:26:03;5.80;5.80;4.00
20157;PMS5003;10239;56.820;24.416;2023-07-16T11:28:38;9.20;6.20;4.00
20157;PMS5003;10239;56.820;24.416;2023-07-16T11:31:13;6.00;6.00;4.00
20157;PMS5003;10239;56.820;24.416;2023-07-16T11:33:44;5.60;5.60;4.00
20157;PMS5003;10239;56.820;24.416;2023-07-16T11:36:12;6.00;6.00;4.00
20157;PMS5003;10239;56.820;24.416;2023-07-16T11:38:41;6.00;4.60;3.00
20157;PMS5003;10239;56.820;24.416;2023-07-16T11:41:09;8.20;7.00;4.00
20157;PMS5003;10239;56.820;24.416;2023-07-16T11:43:37;7.00;7.00;3.00
20157;PMS5003;10239;56.820;24.416;2023-07-16T11:46:14;6.40;6.40;4.00
20157;PMS5003;10239;56.820;24.416;2023-07-16T11:48:44;6.60;5.80;3.00
20157;PMS5003;10239;56.820;24.416;2023-07-16T11:51:12;7.60;7.60;4.20
20157;PMS5003;10239;56.820;24.416;2023-07-16T11:53:39;9.40;7.00;4.00
20157;PMS5003;10239;56.820;24.416;2023-07-16T11:56:07;10.40;8.20;5.00
20157;PMS5003;10239;56.820;24.416;2023-07-16T11:58:34;9.00;7.60;4.00
20157;PMS5003;10239;56.820;24.416;2023-07-16T12:01:01;6.80;6.60;4.00
20157;PMS5003;10239;56.820;24.416;2023-07-16T12:03:29;5.60;5.60;3.40
20157;PMS5003;10239;56.820;24.416;2023-07-16T12:05:57;9.20;5.00;3.00
20157;PMS5003;10239;56.820;24.416;2023-07-16T12:08:24;6.60;6.60;3.60
20157;PMS5003;10239;56.820;24.416;2023-07-16T12:10:52;8.40;8.40;5.60
20157;PMS5003;10239;56.820;24.416;2023-07-16T12:13:20;6.60;6.60;4.80
20157;PMS5003;10239;56.820;24.416;2023-07-16T12:15:48;7.60;7.60;5.00
20157;PMS5003;10239;56.820;24.416;2023-07-16T12:18:15;8.60;8.00;4.60
20157;PMS5003;10239;56.820;24.416;2023-07-16T12:20:43;8.60;7.00;3.80
20157;PMS5003;10239;56.820;24.416;2023-07-16T12:23:10;8.20;6.40;5.00
20157;PMS5003;10239;56.820;24.416;2023-07-16T12:25:38;7.00;7.00;4.80
20157;PMS5003;10239;56.820;24.416;2023-07-16T12:28:06;8.60;6.80;5.40
20157;PMS5003;10239;56.820;24.416;2023-07-16T12:30:34;9.20;9.20;6.00
20157;PMS5003;10239;56.820;24.416;2023-07-16T12:33:02;7.80;7.80;5.60
20157;PMS5003;10239;56.820;24.416;2023-07-16T12:35:31;9.20;7.40;5.00
20157;PMS5003;10239;56.820;24.416;2023-07-16T12:37:58;11.00;9.60;5.80
20157;PMS5003;10239;56.820;24.416;2023-07-16T12:40:27;8.60;8.60;5.20
20157;PMS5003;10239;56.820;24.416;2023-07-16T12:42:56;7.00;7.00;5.00
20157;PMS5003;10239;56.820;24.416;2023-07-16T12:45:23;5.60;4.00;1.40
20157;PMS5003;10239;56.820;24.416;2023-07-16T12:47:51;9.00;9.00;6.20
20157;PMS5003;10239;56.820;24.416;2023-07-16T12:50:19;9.60;9.60;6.00
20157;PMS5003;10239;56.820;24.416;2023-07-16T12:52:46;7.60;6.80;4.00
20157;PMS5003;10239;56.820;24.416;2023-07-16T12:55:15;8.60;8.60;5.00
20157;PMS5003;10239;56.820;24.416;2023-07-16T12:57:42;4.40;4.40;4.20
20157;PMS5003;10239;56.820;24.416;2023-07-16T13:00:10;9.40;7.40;5.80
20157;PMS5003;10239;56.820;24.416;2023-07-16T13:02:38;9.40;7.20;5.00
20157;PMS5003;10239;56.820;24.416;2023-07-16T13:05:07;8.00;8.00;5.20
20157;PMS5003;10239;56.820;24.416;2023-07-16T13:07:35;10.00;10.00;5.80
20157;PMS5003;10239;56.820;24.416;2023-07-16T13:10:05;8.60;8.60;5.20
20157;PMS5003;10239;56.820;24.416;2023-07-16T13:12:46;8.20;8.00;5.00
20157;PMS5003;10239;56.820;24.416;2023-07-16T13:15:14;9.00;7.20;6.00
20157;PMS5003;10239;56.820;24.416;2023-07-16T13:17:41;10.20;8.60;5.20
20157;PMS5003;10239;56.820;24.416;2023-07-16T13:20:09;6.00;6.00;4.00
20157;PMS5003;10239;56.820;24.416;2023-07-16T13:22:38;8.00;8.00;5.60
20157;PMS5003;10239;56.820;24.416;2023-07-16T13:25:06;6.40;6.40;3.80
20157;PMS5003;10239;56.820;24.416;2023-07-16T13:27:34;8.80;8.60;6.00
20157;PMS5003;10239;56.820;24.416;2023-07-16T13:30:01;7.60;7.20;5.00
20157;PMS5003;10239;56.820;24.416;2023-07-16T13:32:29;8.60;7.00;5.80
20157;PMS5003;10239;56.820;24.416;2023-07-16T13:34:57;8.00;6.40;4.00
20157;PMS5003;10239;56.820;24.416;2023-07-16T13:37:24;11.00;6.80;5.00
20157;PMS5003;10239;56.820;24.416;2023-07-16T13:39:51;10.20;8.60;5.00
20157;PMS5003;10239;56.820;24.416;2023-07-16T13:42:19;7.60;7.60;4.00
20157;PMS5003;10239;56.820;24.416;2023-07-16T13:44:49;10.20;10.20;8.00
20157;PMS5003;10239;56.820;24.416;2023-07-16T13:47:17;9.60;8.80;6.00
20157;PMS5003;10239;56.820;24.416;2023-07-16T13:49:44;8.80;8.80;6.00
20157;PMS5003;10239;56.820;24.416;2023-07-16T13:52:14;6.80;6.80;3.80
20157;PMS5003;10239;56.820;24.416;2023-07-16T13:54:45;11.60;8.00;6.60
20157;PMS5003;10239;56.820;24.416;2023-07-16T13:57:12;9.20;9.20;6.00
20157;PMS5003;10239;56.820;24.416;2023-07-16T13:59:40;8.40;7.60;6.20
20157;PMS5003;10239;56.820;24.416;2023-07-16T14:02:07;8.00;8.00;5.40
20157;PMS5003;10239;56.820;24.416;2023-07-16T14:04:35;9.60;9.00;5.20
20157;PMS5003;10239;56.820;24.416;2023-07-16T14:07:03;9.00;9.00;6.00
20157;PMS5003;10239;56.820;24.416;2023-07-16T14:09:31;4.20;4.20;4.00
20157;PMS5003;10239;56.820;24.416;2023-07-16T14:11:58;9.80;8.40;6.00
20157;PMS5003;10239;56.820;24.416;2023-07-16T14:14:26;9.00;9.00;5.80
20157;PMS5003;10239;56.820;24.416;2023-07-16T14:16:53;14.40;9.80;6.00
20157;PMS5003;10239;56.820;24.416;2023-07-16T14:19:22;8.80;8.80;6.60
20157;PMS5003;10239;56.820;24.416;2023-07-16T14:21:50;12.00;12.00;8.00
20157;PMS5003;10239;56.820;24.416;2023-07-16T14:24:17;5.00;5.00;4.60